createdAt,value
2023-02-02T00:00:59.940Z,16.77
2023-02-02T00:03:31.801Z,19.95
2023-02-02T00:06:04.248Z,20.95
2023-02-02T00:08:36.161Z,17.20
2023-02-02T00:11:07.008Z,12.52
2023-02-02T00:13:37.578Z,11.68
2023-02-02T00:16:39.792Z,11.77
2023-02-02T00:19:12.033Z,9.63
2023-02-02T00:21:43.137Z,8.73
2023-02-02T00:24:15.655Z,9.57
2023-02-02T00:26:47.355Z,10.73
2023-02-02T00:29:19.952Z,10.15
2023-02-02T00:31:54.671Z,11.77
2023-02-02T00:34:26.344Z,7.53
2023-02-02T00:36:56.940Z,6.25
2023-02-02T00:39:29.873Z,5.90
2023-02-02T00:42:00.391Z,2.90
2023-02-02T00:44:43.273Z,3.00
2023-02-02T00:47:17.063Z,2.50
2023-02-02T00:49:47.544Z,2.70
2023-02-02T00:52:18.339Z,2.65
2023-02-02T00:54:48.973Z,2.67
2023-02-02T00:57:19.638Z,2.92
2023-02-02T00:59:50.253Z,2.63
2023-02-02T01:02:25.220Z,2.72
2023-02-02T01:04:55.941Z,3.30
2023-02-02T01:07:26.821Z,2.83
2023-02-02T01:09:57.498Z,3.13
2023-02-02T01:12:28.392Z,2.42
2023-02-02T01:14:58.929Z,2.75
2023-02-02T01:17:32.144Z,2.97
2023-02-02T01:20:02.809Z,2.97
2023-02-02T01:22:34.316Z,2.50
2023-02-02T01:25:05.239Z,2.38
2023-02-02T01:27:35.899Z,2.40
2023-02-02T01:30:07.127Z,2.10
2023-02-02T01:32:40.379Z,2.58
2023-02-02T01:35:11.396Z,2.60
2023-02-02T01:37:42.556Z,2.72
2023-02-02T01:40:15.503Z,2.42
2023-02-02T01:42:46.158Z,2.78
2023-02-02T01:45:29.274Z,2.80
2023-02-02T01:48:03.753Z,2.70
2023-02-02T01:50:37.652Z,2.92
2023-02-02T01:53:10.486Z,2.33
2023-02-02T01:55:42.848Z,3.00
2023-02-02T01:58:21.167Z,2.75
2023-02-02T02:00:52.718Z,3.40
2023-02-02T02:03:29.264Z,3.45
2023-02-02T02:06:03.670Z,3.70
2023-02-02T02:08:38.332Z,3.90
2023-02-02T02:11:09.223Z,3.15
2023-02-02T02:13:54.642Z,3.50
2023-02-02T02:16:35.252Z,3.55
2023-02-02T02:19:29.315Z,4.18
2023-02-02T02:22:18.717Z,3.35
2023-02-02T02:25:34.891Z,3.40
2023-02-02T02:28:26.375Z,3.92
2023-02-02T02:31:34.071Z,3.80
2023-02-02T02:34:13.334Z,4.95
2023-02-02T02:36:52.708Z,5.45
2023-02-02T02:39:30.000Z,5.25
2023-02-02T02:42:05.957Z,4.80
2023-02-02T02:44:38.184Z,4.30
2023-02-02T02:47:09.512Z,4.38
2023-02-02T02:49:49.321Z,3.90
2023-02-02T02:52:19.914Z,4.32
2023-02-02T02:54:53.841Z,4.75
2023-02-02T02:57:55.045Z,5.20
2023-02-02T03:00:45.422Z,4.80
2023-02-02T03:03:26.216Z,4.68
2023-02-02T03:06:08.364Z,6.55
2023-02-02T03:08:43.082Z,8.35
2023-02-02T03:11:16.190Z,7.18
2023-02-02T03:13:49.146Z,6.68
2023-02-02T03:16:19.888Z,6.20
2023-02-02T03:18:50.686Z,7.22
2023-02-02T03:21:23.919Z,6.30
2023-02-02T03:23:55.060Z,6.72
2023-02-02T03:26:25.794Z,6.57
2023-02-02T03:28:58.627Z,7.43
2023-02-02T03:31:30.890Z,7.10
2023-02-02T03:34:01.488Z,7.43
2023-02-02T03:36:34.713Z,6.80
2023-02-02T03:39:05.450Z,6.88
2023-02-02T03:41:36.099Z,6.80
2023-02-02T03:44:06.730Z,7.57
2023-02-02T03:46:37.354Z,7.03
2023-02-02T03:49:08.157Z,7.80
2023-02-02T03:51:41.582Z,7.63
2023-02-02T03:54:12.146Z,8.50
2023-02-02T03:56:42.743Z,8.75
2023-02-02T03:59:13.356Z,11.45
2023-02-02T04:01:43.997Z,9.75
2023-02-02T04:04:14.662Z,9.50
2023-02-02T04:06:47.853Z,8.82
2023-02-02T04:09:18.507Z,8.93
2023-02-02T04:11:49.028Z,7.97
2023-02-02T04:14:19.809Z,6.25
2023-02-02T04:16:50.336Z,6.28
2023-02-02T04:19:21.057Z,6.22
2023-02-02T04:21:54.480Z,5.60
2023-02-02T04:24:25.058Z,6.35
2023-02-02T04:26:55.596Z,5.90
2023-02-02T04:29:26.545Z,5.40
2023-02-02T04:31:58.044Z,6.18
2023-02-02T04:34:28.609Z,6.25
2023-02-02T04:37:02.634Z,6.45
2023-02-02T04:39:33.382Z,6.95
2023-02-02T04:42:03.923Z,6.47
2023-02-02T04:44:34.568Z,8.88
2023-02-02T04:47:05.046Z,8.32
2023-02-02T04:49:35.596Z,8.30
2023-02-02T04:52:09.232Z,9.13
2023-02-02T04:54:39.893Z,8.68
2023-02-02T04:57:10.433Z,7.85
2023-02-02T04:59:42.493Z,7.10
2023-02-02T05:02:13.159Z,6.93
2023-02-02T05:04:43.748Z,6.55
2023-02-02T05:07:17.080Z,6.90
2023-02-02T05:09:47.607Z,7.00
2023-02-02T05:12:18.049Z,6.82
2023-02-02T05:14:48.758Z,6.57
2023-02-02T05:17:19.344Z,7.32
2023-02-02T05:19:49.924Z,8.43
2023-02-02T05:22:23.088Z,9.00
2023-02-02T05:24:53.719Z,9.38
2023-02-02T05:27:24.301Z,8.57
2023-02-02T05:29:55.012Z,6.88
2023-02-02T05:32:25.538Z,7.57
2023-02-02T05:34:56.061Z,7.43
2023-02-02T05:37:29.218Z,6.85
2023-02-02T05:39:59.733Z,20.33
2023-02-02T05:42:30.293Z,13.68
2023-02-02T05:45:00.868Z,11.98
2023-02-02T05:47:31.454Z,13.95
2023-02-02T05:50:02.783Z,10.07
2023-02-02T05:52:38.680Z,11.55
2023-02-02T05:55:10.354Z,5.90
2023-02-02T05:57:40.879Z,9.45
2023-02-02T06:00:13.239Z,8.75
2023-02-02T06:02:43.911Z,10.27
2023-02-02T06:05:14.708Z,7.63
2023-02-02T06:07:47.773Z,5.53
2023-02-02T06:10:18.630Z,7.32
2023-02-02T06:12:49.163Z,4.75
2023-02-02T06:15:19.901Z,4.88
2023-02-02T06:17:50.568Z,6.97
2023-02-02T06:20:22.559Z,6.82
2023-02-02T06:22:55.755Z,5.18
2023-02-02T06:25:26.654Z,4.40
2023-02-02T06:27:59.261Z,6.20
2023-02-02T06:30:30.389Z,4.70
2023-02-02T06:33:03.703Z,7.80
2023-02-02T06:35:34.326Z,10.38
2023-02-02T06:38:07.481Z,11.73
2023-02-02T06:40:37.987Z,9.70
2023-02-02T06:43:09.289Z,8.35
2023-02-02T06:45:40.500Z,6.18
2023-02-02T06:48:11.520Z,10.82
2023-02-02T06:50:42.095Z,7.32
2023-02-02T06:53:16.181Z,5.45
2023-02-02T06:55:46.700Z,5.20
2023-02-02T06:58:17.160Z,3.75
2023-02-02T07:00:48.498Z,4.35
2023-02-02T07:03:19.121Z,6.80
2023-02-02T07:05:49.995Z,11.88
2023-02-02T07:08:23.191Z,12.95
2023-02-02T07:11:14.235Z,7.38
2023-02-02T07:13:44.328Z,5.22
2023-02-02T07:16:15.892Z,6.85
2023-02-02T07:18:47.827Z,5.53
2023-02-02T07:21:23.540Z,6.63
2023-02-02T07:23:56.761Z,4.70
2023-02-02T07:26:27.926Z,5.90
2023-02-02T07:28:58.700Z,4.35
2023-02-02T07:31:30.390Z,3.75
2023-02-02T07:34:02.037Z,5.13
2023-02-02T07:36:32.791Z,5.50
2023-02-02T07:39:07.937Z,3.50
2023-02-02T07:41:39.758Z,4.10
2023-02-02T07:44:19.319Z,5.07
2023-02-02T07:46:51.105Z,4.65
2023-02-02T07:49:22.392Z,7.20
2023-02-02T07:51:53.005Z,7.55
2023-02-02T07:54:26.309Z,6.75
2023-02-02T07:56:56.971Z,7.38
2023-02-02T07:59:27.499Z,7.53
2023-02-02T08:01:58.066Z,5.50
2023-02-02T08:04:28.630Z,6.90
2023-02-02T08:06:59.252Z,6.53
2023-02-02T08:09:33.296Z,5.25
2023-02-02T08:12:04.620Z,2.88
2023-02-02T08:14:35.568Z,4.35
2023-02-02T08:17:06.433Z,3.65
2023-02-02T08:19:37.083Z,4.03
2023-02-02T08:22:07.757Z,2.72
2023-02-02T08:24:43.145Z,2.30
2023-02-02T08:27:14.030Z,1.75
2023-02-02T08:29:44.559Z,1.35
2023-02-02T08:32:15.297Z,2.15
2023-02-02T08:34:45.841Z,1.10
2023-02-02T08:37:16.465Z,1.60
2023-02-02T08:39:49.558Z,1.70
2023-02-02T08:42:20.107Z,2.10
2023-02-02T08:46:01.139Z,2.22
2023-02-02T08:47:42.138Z,1.77
2023-02-02T08:50:14.314Z,1.88
2023-02-02T08:52:44.958Z,2.67
2023-02-02T08:55:18.294Z,2.33
2023-02-02T08:57:48.812Z,3.15
2023-02-02T09:00:22.794Z,3.00
2023-02-02T09:02:53.867Z,2.00
2023-02-02T09:05:24.656Z,1.45
2023-02-02T09:07:55.441Z,1.70
2023-02-02T09:10:32.229Z,1.60
2023-02-02T09:13:02.837Z,1.95
2023-02-02T09:15:33.756Z,2.55
2023-02-02T09:18:04.502Z,1.42
2023-02-02T09:20:35.063Z,2.25
2023-02-02T09:23:05.632Z,1.65
2023-02-02T09:25:38.789Z,2.03
2023-02-02T09:28:09.339Z,1.50
2023-02-02T09:30:39.849Z,1.90
2023-02-02T09:33:10.524Z,1.15
2023-02-02T09:35:41.318Z,1.40
2023-02-02T09:38:11.917Z,1.30
2023-02-02T09:40:45.103Z,1.63
2023-02-02T09:43:30.843Z,1.75
2023-02-02T09:46:14.009Z,1.60
2023-02-02T09:48:54.935Z,2.00
2023-02-02T09:51:29.051Z,1.30
2023-02-02T09:54:05.552Z,2.05
2023-02-02T09:56:43.733Z,2.33
2023-02-02T09:59:24.227Z,1.40
2023-02-02T10:01:59.284Z,1.77
2023-02-02T10:04:36.870Z,2.05
2023-02-02T10:07:13.041Z,1.60
2023-02-02T10:09:49.849Z,0.90
2023-02-02T10:12:33.248Z,2.10
2023-02-02T10:15:13.292Z,1.70
2023-02-02T10:17:50.291Z,1.40
2023-02-02T10:20:36.272Z,2.40
2023-02-02T10:23:16.804Z,2.63
2023-02-02T10:25:57.975Z,1.23
2023-02-02T10:28:44.268Z,2.10
2023-02-02T10:31:25.278Z,0.90
2023-02-02T10:34:07.233Z,1.55
2023-02-02T10:36:48.620Z,2.05
2023-02-02T10:39:26.789Z,1.23
2023-02-02T10:42:08.539Z,1.65
2023-02-02T10:44:51.074Z,1.20
2023-02-02T10:47:27.519Z,1.30
2023-02-02T10:50:06.356Z,1.35
2023-02-02T10:52:38.614Z,1.98
2023-02-02T10:55:18.641Z,2.75
2023-02-02T10:58:05.249Z,2.47
2023-02-02T11:00:43.819Z,1.50
2023-02-02T11:03:16.519Z,1.38
2023-02-02T11:05:59.505Z,2.10
2023-02-02T11:08:36.174Z,1.40
2023-02-02T11:11:15.107Z,1.50
2023-02-02T11:13:50.269Z,1.20
2023-02-02T11:16:41.311Z,1.67
2023-02-02T11:19:31.003Z,1.50
2023-02-02T11:22:04.085Z,2.00
2023-02-02T11:24:38.334Z,4.05
2023-02-02T11:27:16.345Z,1.60
2023-02-02T11:29:50.267Z,1.30
2023-02-02T11:32:30.969Z,1.58
2023-02-02T11:35:21.165Z,1.70
2023-02-02T11:38:01.458Z,2.05
2023-02-02T11:40:38.878Z,1.50
2023-02-02T11:43:20.651Z,1.30
2023-02-02T11:46:01.629Z,1.58
2023-02-02T11:48:40.646Z,2.45
2023-02-02T11:51:24.567Z,1.80
2023-02-02T11:54:06.317Z,1.50
2023-02-02T11:56:40.228Z,1.40
2023-02-02T11:59:31.857Z,1.90
2023-02-02T12:02:32.668Z,1.92
2023-02-02T12:05:39.895Z,1.90
2023-02-02T12:08:14.376Z,1.98
2023-02-02T12:10:50.088Z,1.92
2023-02-02T12:13:34.102Z,3.80
2023-02-02T12:16:18.785Z,2.15
2023-02-02T12:19:00.945Z,1.92
2023-02-02T12:21:41.739Z,1.27
2023-02-02T12:24:31.670Z,2.17
2023-02-02T12:27:22.777Z,2.10
2023-02-02T12:30:14.562Z,2.13
2023-02-02T12:33:03.596Z,2.13
2023-02-02T12:36:06.305Z,1.30
2023-02-02T12:39:00.704Z,1.40
2023-02-02T12:41:44.761Z,2.40
2023-02-02T12:44:26.512Z,2.17
2023-02-02T12:47:12.035Z,2.30
2023-02-02T12:49:58.995Z,2.00
2023-02-02T12:52:44.628Z,2.28
2023-02-02T12:55:28.603Z,2.60
2023-02-02T12:58:09.838Z,1.65
2023-02-02T13:00:59.913Z,1.70
2023-02-02T13:03:37.322Z,2.00
2023-02-02T13:06:28.967Z,4.10
2023-02-02T13:09:05.202Z,2.20
2023-02-02T13:11:45.981Z,3.50
2023-02-02T13:14:21.087Z,3.05
2023-02-02T13:16:56.495Z,3.28
2023-02-02T13:22:05.364Z,2.53
2023-02-02T13:24:41.627Z,3.38
2023-02-02T13:27:21.248Z,2.80
2023-02-02T13:29:55.723Z,2.92
2023-02-02T13:32:33.432Z,3.90
2023-02-02T13:35:07.816Z,3.00
2023-02-02T13:37:45.889Z,3.20
2023-02-02T13:40:27.200Z,1.92
2023-02-02T13:43:11.525Z,2.13
2023-02-02T13:45:55.816Z,1.92
2023-02-02T13:48:36.118Z,2.60
2023-02-02T13:51:34.823Z,2.80
2023-02-02T13:54:37.521Z,2.63
2023-02-02T13:57:20.533Z,3.17
2023-02-02T14:00:15.717Z,2.95
2023-02-02T14:02:49.593Z,3.42
2023-02-02T14:05:27.593Z,3.13
2023-02-02T14:08:04.592Z,2.97
2023-02-02T14:10:38.889Z,3.33
2023-02-02T14:13:34.489Z,2.75
2023-02-02T14:16:10.555Z,3.40
2023-02-02T14:18:59.155Z,4.57
2023-02-02T14:21:59.443Z,2.53
2023-02-02T14:24:46.806Z,3.47
2023-02-02T14:27:57.920Z,2.63
2023-02-02T14:30:35.628Z,2.58
2023-02-02T14:33:47.691Z,1.80
2023-02-02T14:36:20.794Z,2.67
2023-02-02T14:39:09.869Z,2.65
2023-02-02T14:42:32.039Z,2.13
2023-02-02T14:45:18.595Z,2.28
2023-02-02T14:47:55.715Z,1.63
2023-02-02T14:50:36.339Z,1.58
2023-02-02T14:53:10.737Z,1.40
2023-02-02T14:55:55.485Z,1.63
2023-02-02T14:58:31.893Z,2.60
2023-02-02T15:01:13.847Z,2.47
2023-02-02T15:03:55.084Z,2.72
2023-02-02T15:06:36.926Z,2.40
2023-02-02T15:09:37.179Z,3.60
2023-02-02T15:12:31.053Z,4.55
2023-02-02T15:15:12.771Z,5.50
2023-02-02T15:18:03.485Z,5.30
2023-02-02T15:20:40.147Z,5.88
2023-02-02T15:23:25.472Z,7.07
2023-02-02T15:26:00.752Z,8.93
2023-02-02T15:28:41.961Z,10.80
2023-02-02T15:31:21.123Z,13.70
2023-02-02T15:33:54.988Z,5.68
2023-02-02T15:36:28.915Z,7.78
2023-02-02T15:39:06.266Z,9.90
2023-02-02T15:41:40.378Z,14.30
2023-02-02T15:44:21.904Z,10.30
2023-02-02T15:46:52.687Z,10.90
2023-02-02T15:49:34.709Z,11.38
2023-02-02T15:52:15.990Z,6.15
2023-02-02T15:54:58.347Z,4.70
2023-02-02T15:57:34.317Z,6.63
2023-02-02T16:00:26.037Z,6.05
2023-02-02T16:03:01.074Z,5.70
2023-02-02T16:05:47.601Z,5.05
2023-02-02T16:08:21.849Z,1.88
2023-02-02T16:11:05.976Z,3.00
2023-02-02T16:13:36.843Z,4.00
2023-02-02T16:16:09.728Z,1.90
2023-02-02T16:18:40.348Z,4.53
2023-02-02T16:21:21.930Z,4.95
2023-02-02T16:23:53.340Z,3.03
2023-02-02T16:26:32.059Z,2.58
2023-02-02T16:29:02.905Z,2.08
2023-02-02T16:31:33.738Z,2.60
2023-02-02T16:34:05.120Z,3.35
2023-02-02T16:36:35.733Z,3.60
2023-02-02T16:39:17.331Z,1.85
2023-02-02T16:41:50.964Z,2.75
2023-02-02T16:44:43.873Z,2.55
2023-02-02T16:47:39.068Z,1.80
2023-02-02T16:50:36.998Z,1.80
2023-02-02T16:53:09.063Z,2.67
2023-02-02T16:55:50.329Z,2.58
2023-02-02T16:58:26.534Z,1.50
2023-02-02T17:01:14.996Z,2.05
2023-02-02T17:03:55.142Z,2.17
2023-02-02T17:06:42.151Z,1.90
2023-02-02T17:09:34.549Z,1.98
2023-02-02T17:12:19.440Z,2.30
2023-02-02T17:15:05.227Z,2.10
2023-02-02T17:17:36.125Z,4.60
2023-02-02T17:20:08.570Z,2.10
2023-02-02T17:22:42.786Z,2.67
2023-02-02T17:25:18.020Z,2.00
2023-02-02T17:27:49.793Z,2.42
2023-02-02T17:30:23.583Z,1.92
2023-02-02T17:32:54.253Z,2.15
2023-02-02T17:35:28.678Z,2.92
2023-02-02T17:38:03.239Z,1.67
2023-02-02T17:40:33.908Z,3.08
2023-02-02T17:43:06.472Z,4.20
2023-02-02T17:45:40.279Z,4.03
2023-02-02T17:48:14.437Z,4.22
2023-02-02T17:50:46.203Z,3.30
2023-02-02T17:53:18.651Z,2.78
2023-02-02T17:55:51.665Z,3.97
2023-02-02T17:58:22.649Z,2.20
2023-02-02T18:00:59.468Z,2.03
2023-02-02T18:03:34.246Z,2.22
2023-02-02T18:06:06.015Z,2.88
2023-02-02T18:08:36.923Z,2.60
2023-02-02T18:11:07.902Z,3.60
2023-02-02T18:13:38.615Z,4.30
2023-02-02T18:16:12.882Z,5.47
2023-02-02T18:18:43.723Z,7.50
2023-02-02T18:21:15.752Z,10.13
2023-02-02T18:23:46.500Z,12.77
2023-02-02T18:26:20.540Z,12.90
2023-02-02T18:28:53.560Z,13.48
2023-02-02T18:31:27.317Z,12.20
2023-02-02T18:33:58.161Z,12.95
2023-02-02T18:36:28.955Z,12.27
2023-02-02T18:39:00.021Z,11.00
2023-02-02T18:41:31.482Z,10.23
2023-02-02T18:44:02.280Z,8.77
2023-02-02T18:46:36.510Z,7.60
2023-02-02T18:49:07.166Z,12.32
2023-02-02T18:51:37.995Z,14.50
2023-02-02T18:54:08.795Z,10.50
2023-02-02T18:56:39.830Z,11.50
2023-02-02T18:59:10.797Z,11.77
2023-02-02T19:01:44.422Z,13.75
2023-02-02T19:04:15.524Z,7.50
2023-02-02T19:06:58.643Z,6.13
2023-02-02T19:09:30.007Z,11.48
2023-02-02T19:12:01.000Z,7.80
2023-02-02T19:14:37.026Z,11.20
2023-02-02T19:17:24.692Z,12.52
2023-02-02T19:19:55.810Z,13.15
2023-02-02T19:22:31.352Z,12.82
2023-02-02T19:27:33.093Z,14.32
2023-02-02T19:30:06.108Z,13.25
2023-02-02T19:32:47.262Z,8.63
2023-02-02T19:35:22.648Z,9.02
2023-02-02T19:37:56.260Z,9.35
2023-02-02T19:40:28.238Z,9.02
2023-02-02T19:43:02.493Z,10.60
2023-02-02T19:45:35.790Z,10.02
2023-02-02T19:48:17.904Z,11.05
2023-02-02T19:50:49.312Z,7.53
2023-02-02T19:53:23.378Z,7.30
2023-02-02T19:55:54.873Z,7.93
2023-02-02T19:58:28.525Z,7.25
2023-02-02T20:01:00.424Z,10.50
2023-02-02T20:03:46.756Z,11.82
2023-02-02T20:06:25.638Z,14.95
2023-02-02T20:08:56.680Z,16.27
2023-02-02T20:11:32.698Z,16.58
2023-02-02T20:14:03.983Z,11.27
2023-02-02T20:16:41.037Z,11.07
2023-02-02T20:19:20.309Z,9.85
2023-02-02T20:21:53.604Z,7.78
2023-02-02T20:24:27.572Z,7.70
2023-02-02T20:27:03.777Z,7.43
2023-02-02T20:29:43.447Z,6.47
2023-02-02T20:32:26.012Z,5.90
2023-02-02T20:35:01.078Z,4.57
2023-02-02T20:40:05.314Z,4.85
2023-02-02T20:42:35.989Z,4.78
2023-02-02T20:45:06.932Z,5.03
2023-02-02T20:47:37.509Z,8.45
2023-02-02T20:50:12.153Z,22.80
2023-02-02T20:52:42.776Z,14.67
2023-02-02T20:55:14.036Z,14.38
2023-02-02T20:57:44.605Z,15.45
2023-02-02T21:00:21.772Z,12.68
2023-02-02T21:02:52.883Z,7.60
2023-02-02T21:05:26.515Z,3.20
2023-02-02T21:07:57.545Z,3.83
2023-02-02T21:10:29.464Z,4.97
2023-02-02T21:13:00.069Z,5.70
2023-02-02T21:15:31.165Z,6.38
2023-02-02T21:18:02.496Z,6.38
2023-02-02T21:20:36.103Z,4.97
2023-02-02T21:23:07.139Z,2.60
2023-02-02T21:25:38.339Z,5.35
2023-02-02T21:28:09.380Z,4.65
2023-02-02T21:30:40.158Z,7.80
2023-02-02T21:33:13.776Z,13.07
2023-02-02T21:35:46.999Z,12.73
2023-02-02T21:38:19.211Z,12.00
2023-02-02T21:40:51.737Z,11.38
2023-02-02T21:43:22.276Z,10.60
2023-02-02T21:45:56.767Z,13.52
2023-02-02T21:48:32.699Z,13.27
2023-02-02T21:51:22.715Z,12.48
2023-02-02T21:53:53.381Z,9.75
2023-02-02T21:56:30.356Z,10.75
2023-02-02T21:59:02.360Z,7.00
2023-02-02T22:01:39.875Z,7.47
2023-02-02T22:04:31.769Z,6.90
2023-02-02T22:07:15.741Z,5.53
2023-02-02T22:09:48.873Z,4.50
2023-02-02T22:12:23.345Z,3.70
2023-02-02T22:14:58.092Z,3.85
2023-02-02T22:17:34.965Z,5.20
2023-02-02T22:20:14.039Z,5.47
2023-02-02T22:22:48.841Z,5.28
2023-02-02T22:25:31.082Z,4.68
2023-02-02T22:28:04.752Z,4.30
2023-02-02T22:30:39.662Z,4.03
2023-02-02T22:33:13.255Z,3.88
2023-02-02T22:35:44.334Z,3.33
2023-02-02T22:38:19.846Z,3.28
2023-02-02T22:43:22.296Z,2.95
2023-02-02T22:45:52.842Z,3.20
2023-02-02T22:48:23.490Z,3.88
2023-02-02T22:50:54.011Z,3.53
2023-02-02T22:53:27.309Z,2.88
2023-02-02T22:55:59.276Z,3.05
2023-02-02T22:58:29.873Z,2.70
2023-02-02T23:01:00.377Z,3.25
2023-02-02T23:03:30.991Z,3.30
2023-02-02T23:06:01.509Z,2.88
2023-02-02T23:08:34.887Z,2.33
2023-02-02T23:11:05.397Z,1.50
2023-02-02T23:13:36.031Z,1.90
2023-02-02T23:16:07.364Z,2.83
2023-02-02T23:18:37.982Z,3.28
2023-02-02T23:21:08.922Z,3.35
2023-02-02T23:23:42.726Z,5.30
2023-02-02T23:26:13.321Z,10.68
2023-02-02T23:28:43.834Z,11.55
2023-02-02T23:31:14.488Z,11.88
2023-02-02T23:33:48.141Z,9.20
2023-02-02T23:36:18.815Z,9.23
2023-02-02T23:38:52.130Z,9.25
2023-02-02T23:41:22.569Z,8.68
2023-02-02T23:43:53.279Z,7.55
2023-02-02T23:46:23.986Z,6.25
2023-02-02T23:48:55.012Z,6.47
2023-02-02T23:51:25.548Z,5.72
2023-02-02T23:53:58.835Z,5.85
2023-02-02T23:56:29.880Z,5.63
2023-02-02T23:59:00.454Z,4.75
